createdAt,value
2018-11-03T00:00:42.434Z,33.25
2018-11-03T00:01:45.535Z,32.50
2018-11-03T00:02:49.209Z,33.50
2018-11-03T00:03:52.882Z,33.75
2018-11-03T00:04:56.972Z,30.75
2018-11-03T00:06:00.198Z,37.00
2018-11-03T00:07:02.990Z,40.75
2018-11-03T00:08:06.871Z,40.00
2018-11-03T00:09:09.896Z,37.75
2018-11-03T00:10:13.136Z,44.00
2018-11-03T00:11:15.960Z,34.75
2018-11-03T00:12:19.756Z,37.00
2018-11-03T00:13:22.774Z,37.00
2018-11-03T00:14:25.661Z,33.25
2018-11-03T00:15:30.621Z,43.25
2018-11-03T00:16:33.815Z,39.00
2018-11-03T00:17:36.899Z,39.50
2018-11-03T00:18:40.881Z,33.50
2018-11-03T00:19:45.238Z,32.25
2018-11-03T00:20:49.272Z,34.75
2018-11-03T00:21:55.020Z,39.25
2018-11-03T00:22:58.110Z,30.75
2018-11-03T00:24:03.942Z,36.75
2018-11-03T00:25:06.698Z,38.00
2018-11-03T00:26:10.637Z,30.75
2018-11-03T00:27:14.319Z,34.00
2018-11-03T00:28:17.118Z,33.50
2018-11-03T00:29:20.512Z,37.75
2018-11-03T00:30:23.253Z,35.00
2018-11-03T00:31:27.020Z,37.25
2018-11-03T00:32:30.782Z,33.50
2018-11-03T00:33:35.290Z,48.50
2018-11-03T00:34:38.700Z,32.75
2018-11-03T00:35:43.479Z,36.50
2018-11-03T00:36:46.210Z,36.25
2018-11-03T00:37:51.402Z,37.50
2018-11-03T00:38:54.510Z,33.25
2018-11-03T00:39:59.578Z,33.00
2018-11-03T00:41:04.145Z,32.00
2018-11-03T00:42:07.298Z,34.25
2018-11-03T00:43:10.275Z,35.25
2018-11-03T00:44:14.009Z,31.25
2018-11-03T00:45:16.726Z,30.00
2018-11-03T00:46:20.216Z,35.75
2018-11-03T00:47:23.022Z,40.50
2018-11-03T00:48:27.312Z,32.75
2018-11-03T00:49:30.063Z,34.75
2018-11-03T00:50:35.885Z,29.50
2018-11-03T00:51:38.634Z,29.75
2018-11-03T00:52:42.380Z,34.75
2018-11-03T00:53:45.129Z,33.25
2018-11-03T00:54:48.314Z,30.00
2018-11-03T00:55:51.069Z,29.00
2018-11-03T00:56:54.719Z,32.25
2018-11-03T00:57:57.463Z,32.00
2018-11-03T00:59:00.207Z,34.25
2018-11-03T01:01:14.227Z,32.75
2018-11-03T01:02:17.034Z,37.25
2018-11-03T01:03:19.756Z,40.25
2018-11-03T01:04:22.970Z,39.25
2018-11-03T01:05:26.924Z,39.50
2018-11-03T01:06:30.606Z,31.25
2018-11-03T01:07:35.363Z,38.75
2018-11-03T01:08:41.140Z,32.00
2018-11-03T01:09:43.891Z,33.50
2018-11-03T01:10:46.672Z,36.50
2018-11-03T01:11:50.118Z,33.25
2018-11-03T01:12:54.152Z,35.25
2018-11-03T01:13:56.884Z,32.00
2018-11-03T01:14:59.683Z,32.75
2018-11-03T01:16:02.505Z,33.50
2018-11-03T01:17:06.983Z,31.00
2018-11-03T01:18:09.710Z,33.25
2018-11-03T01:19:12.448Z,31.25
2018-11-03T01:20:16.384Z,23.50
2018-11-03T01:21:20.347Z,43.50
2018-11-03T01:22:23.084Z,37.75
2018-11-03T01:23:25.813Z,35.00
2018-11-03T01:24:28.603Z,39.00
2018-11-03T01:25:31.771Z,36.25
2018-11-03T01:26:34.531Z,40.25
2018-11-03T01:27:37.344Z,42.50
2018-11-03T01:28:40.195Z,35.25
2018-11-03T01:29:43.129Z,41.00
2018-11-03T01:30:46.431Z,35.25
2018-11-03T01:31:49.576Z,31.75
2018-11-03T01:32:52.334Z,31.00
2018-11-03T01:33:57.299Z,35.50
2018-11-03T01:35:02.675Z,34.50
2018-11-03T01:36:06.371Z,30.50
2018-11-03T01:37:09.171Z,27.25
2018-11-03T01:38:13.090Z,27.75
2018-11-03T01:39:16.099Z,28.75
2018-11-03T01:40:18.826Z,33.75
2018-11-03T01:41:21.580Z,29.25
2018-11-03T01:42:24.336Z,31.50
2018-11-03T01:43:27.054Z,28.75
2018-11-03T01:44:30.251Z,28.75
2018-11-03T01:45:34.246Z,24.25
2018-11-03T01:46:37.310Z,27.25
2018-11-03T01:47:41.141Z,27.75
2018-11-03T01:48:44.343Z,25.25
2018-11-03T01:49:48.618Z,25.75
2018-11-03T01:50:52.241Z,29.75
2018-11-03T01:51:54.996Z,25.00
2018-11-03T01:52:57.746Z,28.00
2018-11-03T01:54:00.468Z,32.25
2018-11-03T01:55:03.376Z,31.25
2018-11-03T01:56:07.499Z,41.00
2018-11-03T01:57:10.793Z,34.75
2018-11-03T01:58:13.846Z,41.25
2018-11-03T01:59:17.202Z,34.25
2018-11-03T02:00:20.276Z,36.75
2018-11-03T02:01:23.330Z,28.25
2018-11-03T02:02:26.077Z,29.25
2018-11-03T02:03:29.104Z,35.25
2018-11-03T02:04:32.534Z,30.25
2018-11-03T02:05:35.736Z,28.75
2018-11-03T02:06:38.555Z,29.25
2018-11-03T02:07:41.460Z,27.50
2018-11-03T02:08:44.357Z,35.00
2018-11-03T02:09:49.523Z,34.25
2018-11-03T02:10:54.301Z,28.00
2018-11-03T02:11:59.255Z,28.00
2018-11-03T02:13:01.972Z,27.75
2018-11-03T02:14:04.721Z,30.75
2018-11-03T02:15:08.653Z,26.25
2018-11-03T02:16:11.732Z,29.75
2018-11-03T02:17:14.505Z,23.50
2018-11-03T02:18:19.692Z,22.75
2018-11-03T02:19:22.949Z,32.25
2018-11-03T02:20:25.935Z,29.75
2018-11-03T02:21:29.386Z,26.00
2018-11-03T02:22:32.900Z,30.25
2018-11-03T02:23:36.640Z,24.25
2018-11-03T02:24:39.828Z,23.00
2018-11-03T02:25:44.329Z,28.50
2018-11-03T02:26:47.410Z,30.25
2018-11-03T02:27:50.478Z,28.25
2018-11-03T02:28:53.972Z,24.00
2018-11-03T02:29:56.737Z,22.50
2018-11-03T02:30:59.492Z,25.00
2018-11-03T02:32:02.335Z,23.00
2018-11-03T02:33:05.548Z,27.00
2018-11-03T02:34:08.346Z,29.50
2018-11-03T02:35:13.270Z,29.25
2018-11-03T02:36:16.493Z,27.25
2018-11-03T02:37:19.952Z,26.50
2018-11-03T02:38:22.778Z,27.50
2018-11-03T02:39:26.455Z,25.50
2018-11-03T02:40:29.884Z,31.75
2018-11-03T02:41:33.917Z,24.00
2018-11-03T02:42:36.812Z,23.00
2018-11-03T02:43:39.658Z,23.75
2018-11-03T02:44:42.452Z,23.00
2018-11-03T02:45:45.801Z,24.75
2018-11-03T02:46:48.600Z,23.00
2018-11-03T02:47:51.890Z,24.75
2018-11-03T02:48:54.631Z,23.00
2018-11-03T02:49:57.397Z,27.25
2018-11-03T02:51:00.791Z,25.00
2018-11-03T02:52:03.558Z,23.50
2018-11-03T02:53:06.343Z,30.75
2018-11-03T02:54:09.108Z,29.00
2018-11-03T02:55:11.894Z,26.25
2018-11-03T02:56:14.658Z,23.50
2018-11-03T02:57:18.348Z,28.75
2018-11-03T02:58:21.090Z,22.50
2018-11-03T02:59:23.912Z,29.75
2018-11-03T03:00:27.953Z,26.00
2018-11-03T03:01:30.771Z,31.00
2018-11-03T03:02:33.590Z,25.00
2018-11-03T03:03:36.361Z,28.50
2018-11-03T03:04:39.115Z,26.75
2018-11-03T03:05:41.841Z,26.00
2018-11-03T03:06:45.633Z,22.75
2018-11-03T03:07:48.464Z,20.50
2018-11-03T03:08:51.302Z,27.50
2018-11-03T03:09:54.651Z,25.25
2018-11-03T03:10:58.307Z,26.75
2018-11-03T03:12:01.188Z,26.25
2018-11-03T03:13:04.420Z,27.50
2018-11-03T03:14:07.158Z,23.50
2018-11-03T03:15:10.243Z,30.75
2018-11-03T03:16:12.995Z,27.00
2018-11-03T03:17:15.798Z,19.00
2018-11-03T03:18:18.544Z,24.75
2018-11-03T03:19:21.759Z,26.25
2018-11-03T03:20:24.557Z,30.75
2018-11-03T03:21:27.366Z,28.50
2018-11-03T03:22:30.271Z,24.25
2018-11-03T03:23:33.050Z,29.00
2018-11-03T03:24:35.813Z,23.00
2018-11-03T03:28:57.930Z,26.75
2018-11-03T03:30:01.036Z,24.75
2018-11-03T03:31:04.095Z,24.00
2018-11-03T03:32:06.877Z,26.50
2018-11-03T03:33:09.922Z,22.75
2018-11-03T03:34:12.671Z,27.00
2018-11-03T03:35:15.582Z,25.50
2018-11-03T03:36:19.013Z,25.00
2018-11-03T03:37:22.506Z,30.00
2018-11-03T03:38:25.279Z,24.75
2018-11-03T03:39:28.012Z,24.50
2018-11-03T03:40:31.530Z,25.25
2018-11-03T03:41:34.581Z,26.00
2018-11-03T03:42:37.446Z,24.00
2018-11-03T03:43:42.467Z,23.00
2018-11-03T03:44:45.207Z,24.75
2018-11-03T03:45:48.622Z,26.00
2018-11-03T03:46:53.424Z,25.00
2018-11-03T03:47:57.566Z,21.25
2018-11-03T03:49:00.354Z,26.50
2018-11-03T03:50:07.365Z,20.75
2018-11-03T03:51:10.535Z,19.75
2018-11-03T03:52:13.394Z,25.75
2018-11-03T03:53:16.843Z,21.00
2018-11-03T03:54:20.003Z,25.25
2018-11-03T03:55:22.781Z,22.25
2018-11-03T03:56:26.336Z,22.00
2018-11-03T03:57:29.363Z,21.25
2018-11-03T03:58:33.993Z,30.00
2018-11-03T03:59:37.483Z,22.50
2018-11-03T04:00:40.463Z,26.00
2018-11-03T04:01:43.218Z,30.25
2018-11-03T04:02:46.509Z,27.25
2018-11-03T04:03:49.814Z,20.25
2018-11-03T04:04:52.963Z,21.25
2018-11-03T04:05:55.730Z,25.75
2018-11-03T04:06:59.255Z,21.75
2018-11-03T04:08:03.038Z,23.75
2018-11-03T04:09:06.682Z,23.25
2018-11-03T04:10:12.019Z,25.50
2018-11-03T04:11:15.909Z,18.25
2018-11-03T04:12:19.870Z,24.25
2018-11-03T04:13:23.045Z,26.50
2018-11-03T04:14:25.824Z,23.25
2018-11-03T04:15:30.452Z,21.75
2018-11-03T04:16:33.854Z,26.25
2018-11-03T04:17:38.140Z,30.75
2018-11-03T04:18:41.785Z,24.00
2018-11-03T04:19:45.529Z,25.25
2018-11-03T04:20:50.072Z,18.00
2018-11-03T04:21:53.132Z,22.00
2018-11-03T04:22:56.489Z,21.00
2018-11-03T04:24:00.173Z,22.00
2018-11-03T04:25:04.272Z,20.50
2018-11-03T04:26:08.009Z,20.00
2018-11-03T04:27:12.005Z,22.00
2018-11-03T04:28:16.107Z,30.00
2018-11-03T04:29:18.908Z,23.00
2018-11-03T04:30:22.501Z,24.50
2018-11-03T04:31:25.276Z,23.00
2018-11-03T04:32:28.974Z,19.00
2018-11-03T04:33:31.978Z,18.50
2018-11-03T04:34:35.010Z,24.50
2018-11-03T04:35:39.172Z,22.50
2018-11-03T04:36:42.500Z,24.50
2018-11-03T04:37:45.614Z,22.00
2018-11-03T04:38:48.378Z,20.00
2018-11-03T04:39:51.166Z,22.00
2018-11-03T04:40:54.238Z,23.50
2018-11-03T04:41:57.020Z,24.00
2018-11-03T04:42:59.761Z,23.50
2018-11-03T04:44:02.716Z,26.50
2018-11-03T04:45:05.712Z,20.00
2018-11-03T04:46:08.491Z,23.00
2018-11-03T04:47:12.279Z,24.00
2018-11-03T04:48:15.230Z,26.00
2018-11-03T04:49:18.272Z,20.00
2018-11-03T04:50:20.999Z,22.50
2018-11-03T04:51:23.795Z,20.00
2018-11-03T04:52:26.557Z,21.50
2018-11-03T04:53:30.556Z,32.50
2018-11-03T04:54:33.545Z,22.00
2018-11-03T04:55:36.716Z,23.00
2018-11-03T04:56:39.480Z,20.00
2018-11-03T04:57:43.276Z,26.50
2018-11-03T04:58:46.963Z,28.00
2018-11-03T04:59:50.455Z,25.00
2018-11-03T05:00:53.222Z,21.50
2018-11-03T05:01:56.054Z,20.00
2018-11-03T05:02:58.821Z,18.00
2018-11-03T05:04:01.568Z,23.00
2018-11-03T05:05:04.351Z,15.50
2018-11-03T05:06:07.417Z,22.00
2018-11-03T05:07:10.320Z,21.50
2018-11-03T05:08:13.111Z,24.00
2018-11-03T05:09:15.844Z,20.50
2018-11-03T05:10:18.660Z,19.00
2018-11-03T05:11:22.634Z,21.50
2018-11-03T05:12:25.981Z,20.50
2018-11-03T05:13:28.726Z,16.00
2018-11-03T05:14:31.479Z,23.50
2018-11-03T05:15:34.669Z,17.50
2018-11-03T05:16:37.630Z,27.00
2018-11-03T05:17:41.320Z,22.50
2018-11-03T05:18:44.468Z,26.00
2018-11-03T05:19:48.024Z,22.50
2018-11-03T05:20:50.827Z,26.00
2018-11-03T05:21:53.559Z,22.00
2018-11-03T05:22:56.729Z,20.00
2018-11-03T05:24:01.434Z,20.00
2018-11-03T05:25:06.676Z,24.00
2018-11-03T05:26:10.472Z,26.00
2018-11-03T05:27:13.275Z,21.50
2018-11-03T05:28:16.097Z,22.50
2018-11-03T05:29:18.862Z,15.50
2018-11-03T05:30:22.339Z,24.50
2018-11-03T05:31:25.682Z,23.00
2018-11-03T05:32:28.327Z,20.00
2018-11-03T05:33:32.693Z,30.00
2018-11-03T05:34:35.415Z,24.50
2018-11-03T05:35:38.184Z,26.00
2018-11-03T05:36:40.965Z,27.00
2018-11-03T05:37:44.084Z,25.50
2018-11-03T05:38:48.625Z,24.50
2018-11-03T05:39:51.418Z,18.00
2018-11-03T05:40:54.250Z,22.50
2018-11-03T05:41:57.016Z,23.00
2018-11-03T05:42:59.818Z,22.50
2018-11-03T05:44:03.036Z,27.00
2018-11-03T05:45:05.766Z,24.00
2018-11-03T05:46:08.658Z,22.50
2018-11-03T05:47:11.801Z,20.00
2018-11-03T05:48:14.589Z,19.50
2018-11-03T05:49:17.848Z,22.00
2018-11-03T05:50:20.621Z,25.50
2018-11-03T05:51:23.341Z,26.00
2018-11-03T05:52:26.122Z,19.00
2018-11-03T05:53:29.513Z,22.50
2018-11-03T05:54:35.302Z,23.00
2018-11-03T05:55:38.035Z,18.50
2018-11-03T05:56:41.090Z,26.50
2018-11-03T05:57:45.622Z,26.00
2018-11-03T05:58:49.212Z,20.50
2018-11-03T05:59:51.999Z,22.50
2018-11-03T06:00:54.792Z,21.00
2018-11-03T06:01:57.541Z,24.50
2018-11-03T06:03:00.884Z,24.50
2018-11-03T06:04:03.621Z,24.00
2018-11-03T06:05:06.384Z,20.00
2018-11-03T06:06:09.111Z,23.50
2018-11-03T06:07:11.886Z,19.50
2018-11-03T06:08:15.035Z,20.00
2018-11-03T06:10:52.668Z,25.00
2018-11-03T06:11:55.442Z,24.50
2018-11-03T06:13:00.682Z,23.50
2018-11-03T06:14:03.508Z,26.00
2018-11-03T06:15:06.303Z,27.00
2018-11-03T06:16:09.500Z,25.50
2018-11-03T06:17:12.250Z,26.00
2018-11-03T06:18:15.214Z,31.00
2018-11-03T06:19:18.082Z,26.00
2018-11-03T06:20:20.925Z,28.50
2018-11-03T06:21:23.838Z,28.00
2018-11-03T06:22:27.084Z,33.50
2018-11-03T06:23:30.285Z,27.50
2018-11-03T06:24:33.808Z,32.00
2018-11-03T06:25:36.954Z,26.00
2018-11-03T06:26:40.790Z,25.50
2018-11-03T06:27:44.216Z,22.00
2018-11-03T06:28:47.342Z,23.00
2018-11-03T06:29:50.622Z,26.00
2018-11-03T06:43:56.321Z,27.00
2018-11-03T06:44:59.399Z,29.00
2018-11-03T06:46:03.139Z,23.50
2018-11-03T06:47:05.910Z,24.00
2018-11-03T06:48:08.702Z,25.75
2018-11-03T06:49:17.334Z,21.00
2018-11-03T06:50:20.924Z,21.00
2018-11-03T06:51:23.693Z,22.75
2018-11-03T06:52:26.513Z,22.25
2018-11-03T06:53:30.200Z,22.75
2018-11-03T06:54:32.949Z,19.25
2018-11-03T06:55:36.180Z,25.50
2018-11-03T06:56:38.946Z,25.00
2018-11-03T06:57:41.690Z,20.50
2018-11-03T06:58:44.472Z,20.00
2018-11-03T06:59:47.260Z,28.00
2018-11-03T07:00:51.690Z,18.00
2018-11-03T07:01:54.742Z,22.00
2018-11-03T07:02:57.579Z,23.00
2018-11-03T07:04:04.765Z,20.00
2018-11-03T07:05:07.761Z,20.00
2018-11-03T07:06:10.622Z,22.00
2018-11-03T07:07:13.393Z,24.50
2018-11-03T07:08:16.543Z,24.50
2018-11-03T07:09:19.416Z,20.50
2018-11-03T07:10:22.294Z,18.50
2018-11-03T07:11:25.196Z,18.00
2018-11-03T07:12:28.291Z,22.00
2018-11-03T07:13:30.889Z,20.50
2018-11-03T07:14:34.118Z,29.00
2018-11-03T07:15:36.906Z,23.00
2018-11-03T07:16:40.218Z,24.50
2018-11-03T07:17:43.812Z,27.00
2018-11-03T07:18:47.535Z,21.50
2018-11-03T07:19:50.340Z,24.50
2018-11-03T07:20:53.518Z,27.50
2018-11-03T07:21:56.315Z,17.00
2018-11-03T07:22:59.199Z,25.50
2018-11-03T07:24:02.584Z,18.00
2018-11-03T07:25:05.367Z,26.00
2018-11-03T07:26:09.938Z,22.00
2018-11-03T07:27:13.007Z,25.50
2018-11-03T07:28:15.795Z,27.50
2018-11-03T07:29:18.635Z,27.00
2018-11-03T07:30:21.998Z,30.00
2018-11-03T07:31:24.790Z,31.50
2018-11-03T07:32:30.244Z,21.00
2018-11-03T07:33:35.180Z,18.50
2018-11-03T07:34:38.237Z,21.00
2018-11-03T07:35:45.844Z,24.00
2018-11-03T07:36:53.617Z,27.00
2018-11-03T07:37:57.779Z,24.00
2018-11-03T07:39:00.611Z,24.00
2018-11-03T07:40:09.239Z,23.50
2018-11-03T07:41:13.671Z,21.00
2018-11-03T07:42:16.412Z,23.50
2018-11-03T07:43:20.546Z,28.50
2018-11-03T07:44:23.316Z,29.00
2018-11-03T07:45:26.761Z,22.00
2018-11-03T07:46:29.831Z,17.50
2018-11-03T07:47:32.720Z,17.00
2018-11-03T07:48:36.092Z,23.50
2018-11-03T07:49:39.696Z,25.00
2018-11-03T07:50:46.682Z,28.00
2018-11-03T07:51:51.450Z,19.00
2018-11-03T07:52:54.455Z,24.00
2018-11-03T07:53:57.484Z,21.50
2018-11-03T07:55:00.830Z,27.00
2018-11-03T07:56:03.578Z,26.00
2018-11-03T07:57:07.815Z,31.50
2018-11-03T07:58:11.087Z,24.50
2018-11-03T07:59:20.687Z,25.50
2018-11-03T08:00:23.784Z,25.50
2018-11-03T08:01:27.418Z,25.00
2018-11-03T08:02:30.397Z,24.00
2018-11-03T08:03:33.767Z,24.00
2018-11-03T08:04:37.395Z,34.00
2018-11-03T08:05:40.753Z,24.00
2018-11-03T08:06:44.181Z,26.50
2018-11-03T08:07:46.988Z,24.50
2018-11-03T08:08:49.860Z,22.50
2018-11-03T08:09:53.551Z,20.00
2018-11-03T08:10:56.653Z,24.00
2018-11-03T08:11:59.600Z,22.75
2018-11-03T08:13:04.129Z,30.25
2018-11-03T08:14:07.948Z,28.75
2018-11-03T08:15:11.494Z,26.00
2018-11-03T08:16:14.291Z,34.50
2018-11-03T08:17:20.601Z,36.75
2018-11-03T08:18:23.932Z,34.50
2018-11-03T08:19:26.722Z,33.75
2018-11-03T08:20:30.792Z,28.50
2018-11-03T08:21:35.667Z,32.75
2018-11-03T08:22:38.482Z,33.25
2018-11-03T08:23:41.804Z,35.25
2018-11-03T08:24:44.559Z,31.75
2018-11-03T08:25:47.372Z,34.25
2018-11-03T08:26:50.114Z,32.50
2018-11-03T08:27:52.872Z,34.75
2018-11-03T08:28:55.983Z,30.25
2018-11-03T08:29:59.332Z,23.75
2018-11-03T08:31:03.351Z,31.00
2018-11-03T08:32:10.638Z,45.50
2018-11-03T08:33:13.686Z,45.50
2018-11-03T08:34:21.374Z,39.00
2018-11-03T08:35:25.751Z,45.50
2018-11-03T08:36:35.549Z,39.00
2018-11-03T08:37:39.588Z,34.25
2018-11-03T08:38:47.736Z,28.75
2018-11-03T08:39:51.406Z,27.50
2018-11-03T08:40:55.593Z,29.75
2018-11-03T08:41:58.399Z,34.00
2018-11-03T08:43:02.488Z,34.00
2018-11-03T08:44:05.490Z,34.75
2018-11-03T08:45:09.689Z,29.00
2018-11-03T08:46:13.397Z,36.75
2018-11-03T08:47:17.454Z,33.75
2018-11-03T08:48:21.472Z,35.25
2018-11-03T08:49:25.847Z,33.75
2018-11-03T08:50:28.644Z,38.50
2018-11-03T08:51:32.377Z,39.50
2018-11-03T08:52:35.477Z,40.50
2018-11-03T08:53:39.489Z,36.50
2018-11-03T08:54:47.044Z,30.00
2018-11-03T08:55:57.294Z,40.00
2018-11-03T08:57:01.147Z,35.00
2018-11-03T08:58:05.974Z,38.25
2018-11-03T08:59:14.246Z,35.00
2018-11-03T09:00:22.748Z,32.25
2018-11-03T09:01:35.419Z,37.00
2018-11-03T09:02:43.291Z,44.25
2018-11-03T09:03:46.678Z,32.25
2018-11-03T09:04:54.312Z,39.00
2018-11-03T09:06:00.979Z,40.75
2018-11-03T09:07:04.557Z,40.25
2018-11-03T09:08:08.313Z,41.25
2018-11-03T09:09:13.258Z,43.25
2018-11-03T09:10:17.462Z,44.25
2018-11-03T09:11:20.318Z,48.75
2018-11-03T09:12:23.052Z,42.50
2018-11-03T09:13:27.370Z,42.25
2018-11-03T09:14:30.677Z,38.75
2018-11-03T09:15:33.472Z,37.25
2018-11-03T09:16:39.969Z,38.75
2018-11-03T09:17:43.702Z,40.25
2018-11-03T09:18:47.531Z,33.75
2018-11-03T09:19:52.061Z,44.25
2018-11-03T09:21:00.790Z,37.25
2018-11-03T09:22:08.419Z,43.25
2018-11-03T09:24:23.937Z,41.50
2018-11-03T09:25:31.674Z,46.50
2018-11-03T09:26:41.606Z,39.00
2018-11-03T09:27:48.370Z,44.50
2018-11-03T09:28:51.357Z,46.75
2018-11-03T09:29:58.154Z,44.75
2018-11-03T09:31:03.058Z,36.75
2018-11-03T09:32:11.946Z,45.00
2018-11-03T09:33:17.633Z,42.25
2018-11-03T09:34:23.279Z,53.75
2018-11-03T09:35:28.237Z,35.25
2018-11-03T09:36:34.299Z,46.25
2018-11-03T09:37:39.347Z,42.25
2018-11-03T09:38:42.402Z,38.50
2018-11-03T09:39:45.852Z,34.50
2018-11-03T09:40:49.407Z,38.25
2018-11-03T09:41:53.228Z,31.75
2018-11-03T09:48:26.487Z,44.25
2018-11-03T09:49:37.559Z,33.00
2018-11-03T09:50:41.809Z,35.00
2018-11-03T09:51:44.561Z,33.75
2018-11-03T09:52:47.516Z,42.25
2018-11-03T09:53:52.228Z,38.00
2018-11-03T09:55:01.284Z,39.25
2018-11-03T09:56:05.109Z,37.50
2018-11-03T09:57:08.361Z,37.00
2018-11-03T09:58:16.260Z,36.25
2018-11-03T09:59:19.290Z,38.25
2018-11-03T10:00:22.662Z,37.75
2018-11-03T10:01:25.845Z,41.25
2018-11-03T10:02:28.669Z,42.25
2018-11-03T10:03:34.060Z,43.25
2018-11-03T10:04:37.301Z,37.75
2018-11-03T10:05:40.589Z,42.00
2018-11-03T10:06:46.763Z,35.75
2018-11-03T10:07:50.291Z,44.75
2018-11-03T10:08:54.904Z,50.50
2018-11-03T10:09:58.664Z,43.75
2018-11-03T10:11:05.134Z,42.25
2018-11-03T10:12:09.920Z,41.25
2018-11-03T10:13:13.242Z,35.00
2018-11-03T10:14:16.804Z,37.50
2018-11-03T10:15:21.013Z,35.75
2018-11-03T10:16:24.383Z,40.00
2018-11-03T10:17:29.881Z,31.25
2018-11-03T10:20:28.660Z,38.75
2018-11-03T10:21:32.462Z,44.75
2018-11-03T10:22:35.858Z,38.75
2018-11-03T10:23:40.181Z,41.00
2018-11-03T10:24:45.163Z,32.25
2018-11-03T10:25:48.364Z,36.00
2018-11-03T10:26:52.354Z,34.00
2018-11-03T10:27:55.150Z,41.50
2018-11-03T10:28:59.442Z,35.75
2018-11-03T10:30:03.497Z,36.00
2018-11-03T10:31:11.373Z,37.50
2018-11-03T10:32:15.388Z,35.00
2018-11-03T10:33:20.429Z,34.75
2018-11-03T10:34:24.928Z,38.25
2018-11-03T10:36:37.247Z,33.25
2018-11-03T10:37:42.583Z,31.50
2018-11-03T10:38:51.168Z,37.50
2018-11-03T10:39:55.550Z,34.75
2018-11-03T10:41:03.478Z,34.50
2018-11-03T10:42:11.674Z,34.00
2018-11-03T10:43:21.206Z,32.50
2018-11-03T10:44:26.314Z,34.75
2018-11-03T10:45:33.577Z,33.75
2018-11-03T10:46:37.052Z,37.00
2018-11-03T10:47:42.694Z,36.50
2018-11-03T10:48:46.164Z,37.50
2018-11-03T10:49:49.519Z,39.00
2018-11-03T10:50:53.335Z,33.50
2018-11-03T10:51:57.488Z,32.50
2018-11-03T10:53:01.752Z,33.00
2018-11-03T10:54:05.644Z,33.25
2018-11-03T10:55:10.799Z,36.75
2018-11-03T10:56:13.924Z,29.00
2018-11-03T10:57:17.018Z,38.00
2018-11-03T10:58:23.290Z,35.00
2018-11-03T10:59:39.300Z,43.00
2018-11-03T11:00:47.658Z,34.25
2018-11-03T11:01:57.049Z,39.00
2018-11-03T11:03:04.897Z,32.75
2018-11-03T11:04:13.022Z,31.75
2018-11-03T11:05:20.656Z,38.75
2018-11-03T11:06:28.463Z,39.00
2018-11-03T11:07:36.311Z,38.75
2018-11-03T11:08:44.595Z,36.25
2018-11-03T11:09:52.419Z,36.75
2018-11-03T11:11:02.291Z,33.50
2018-11-03T11:12:10.226Z,32.75
2018-11-03T11:13:20.477Z,28.25
2018-11-03T11:14:23.379Z,31.25
2018-11-03T11:15:26.157Z,30.00
2018-11-03T11:16:29.849Z,28.25
2018-11-03T11:17:33.829Z,23.25
2018-11-03T11:18:37.034Z,25.75
2018-11-03T11:19:39.939Z,28.00
2018-11-03T11:20:43.353Z,24.25
2018-11-03T11:21:47.712Z,27.75
2018-11-03T11:22:51.098Z,25.75
2018-11-03T11:23:54.728Z,22.25
2018-11-03T11:24:58.673Z,21.50
2018-11-03T11:26:05.048Z,20.00
2018-11-03T11:27:08.616Z,23.25
2018-11-03T11:28:13.671Z,20.50
2018-11-03T11:29:16.580Z,20.50
2018-11-03T11:43:09.850Z,16.00
2018-11-03T11:44:13.105Z,18.00
2018-11-03T11:45:18.459Z,17.25
2018-11-03T11:46:21.523Z,19.00
2018-11-03T11:47:26.726Z,16.75
2018-11-03T11:48:32.231Z,17.75
2018-11-03T11:49:35.882Z,16.00
2018-11-03T11:50:38.658Z,15.00
2018-11-03T11:51:43.148Z,16.00
2018-11-03T11:52:47.249Z,17.75
2018-11-03T11:53:51.216Z,20.00
2018-11-03T11:54:56.463Z,16.00
2018-11-03T11:56:00.792Z,17.75
2018-11-03T11:57:05.606Z,17.50
2018-11-03T11:58:10.403Z,15.75
2018-11-03T11:59:15.174Z,14.50
2018-11-03T12:00:18.663Z,16.00
2018-11-03T12:01:22.469Z,17.75
2018-11-03T12:02:25.850Z,13.75
2018-11-03T12:03:31.593Z,15.00
2018-11-03T12:04:34.386Z,16.50
2018-11-03T12:05:40.230Z,17.50
2018-11-03T12:06:47.532Z,13.00
2018-11-03T12:07:51.606Z,15.00
2018-11-03T12:08:54.369Z,12.50
2018-11-03T12:09:58.545Z,14.50
2018-11-03T12:11:21.442Z,13.50
2018-11-03T12:12:31.106Z,15.00
2018-11-03T12:13:38.347Z,15.75
2018-11-03T12:14:46.709Z,14.50
2018-11-03T12:15:52.343Z,15.50
2018-11-03T12:16:56.770Z,13.25
2018-11-03T12:18:00.469Z,17.25
2018-11-03T12:19:03.688Z,13.50
2018-11-03T12:20:09.667Z,14.50
2018-11-03T12:21:14.430Z,15.25
2018-11-03T12:22:17.262Z,15.00
2018-11-03T12:23:23.310Z,16.75
2018-11-03T12:24:26.741Z,16.75
2018-11-03T12:25:33.159Z,18.00
2018-11-03T12:26:43.749Z,14.50
2018-11-03T12:27:47.506Z,12.75
2018-11-03T12:28:51.519Z,15.50
2018-11-03T12:29:55.935Z,17.25
2018-11-03T12:31:00.760Z,14.00
2018-11-03T12:32:04.794Z,9.25
2018-11-03T12:33:08.829Z,11.00
2018-11-03T12:34:15.767Z,9.50
2018-11-03T12:35:19.015Z,8.50
2018-11-03T12:36:21.950Z,11.50
2018-11-03T12:37:24.739Z,9.00
2018-11-03T12:38:34.444Z,11.25
2018-11-03T12:39:38.956Z,11.00
2018-11-03T12:40:41.755Z,10.25
2018-11-03T12:41:46.156Z,10.25
2018-11-03T12:42:49.955Z,13.00
2018-11-03T12:43:54.781Z,10.50
2018-11-03T12:44:57.707Z,10.75
2018-11-03T12:46:04.329Z,13.00
2018-11-03T12:47:20.055Z,10.75
2018-11-03T12:48:24.590Z,8.75
2018-11-03T12:49:27.567Z,10.00
2018-11-03T12:50:30.946Z,10.00
2018-11-03T12:51:34.353Z,13.75
2018-11-03T12:52:38.166Z,12.50
2018-11-03T12:53:42.862Z,10.00
2018-11-03T12:54:51.320Z,12.75
2018-11-03T12:55:56.682Z,11.75
2018-11-03T12:57:04.145Z,10.00
2018-11-03T12:58:08.077Z,12.00
2018-11-03T12:59:11.946Z,11.00
2018-11-03T13:00:16.987Z,12.00
2018-11-03T13:01:19.790Z,12.00
2018-11-03T13:02:23.179Z,11.75
2018-11-03T13:03:25.915Z,13.00
2018-11-03T13:04:29.168Z,11.00
2018-11-03T13:05:35.117Z,9.00
2018-11-03T13:06:40.159Z,10.00
2018-11-03T13:07:44.457Z,11.50
2018-11-03T13:10:00.417Z,13.00
2018-11-03T13:11:10.830Z,9.00
2018-11-03T13:12:16.094Z,9.00
2018-11-03T13:13:19.522Z,10.00
2018-11-03T13:14:25.348Z,9.00
2018-11-03T13:15:29.554Z,10.00
2018-11-03T13:16:33.228Z,9.00
2018-11-03T13:17:38.631Z,12.00
2018-11-03T13:18:44.392Z,12.00
2018-11-03T13:21:04.409Z,10.50
2018-11-03T13:22:08.709Z,9.75
2018-11-03T13:23:12.781Z,9.25
2018-11-03T13:24:15.887Z,9.00
2018-11-03T13:25:20.354Z,7.50
2018-11-03T13:26:23.770Z,9.25
2018-11-03T13:27:27.496Z,10.00
2018-11-03T13:28:32.604Z,8.50
2018-11-03T13:29:36.892Z,10.00
2018-11-03T13:30:40.221Z,9.75
2018-11-03T13:31:43.271Z,9.75
2018-11-03T13:32:46.403Z,8.00
2018-11-03T13:33:50.315Z,12.75
2018-11-03T13:34:55.554Z,7.00
2018-11-03T13:36:14.271Z,12.00
2018-11-03T13:37:20.707Z,12.00
2018-11-03T13:38:24.639Z,9.75
2018-11-03T13:39:27.378Z,10.00
2018-11-03T13:40:31.319Z,11.75
2018-11-03T13:41:34.050Z,9.00
2018-11-03T13:42:36.786Z,12.00
2018-11-03T13:43:39.529Z,11.50
2018-11-03T13:44:42.270Z,11.25
2018-11-03T13:45:46.792Z,12.00
2018-11-03T13:46:50.443Z,11.75
2018-11-03T13:47:53.639Z,14.50
2018-11-03T13:48:58.417Z,14.75
2018-11-03T13:50:01.242Z,9.75
2018-11-03T13:51:04.668Z,10.00
2018-11-03T13:52:07.800Z,12.00
2018-11-03T13:53:12.291Z,11.00
2018-11-03T13:54:15.191Z,12.00
2018-11-03T13:55:18.157Z,10.50
2018-11-03T13:57:36.964Z,8.25
2018-11-03T13:58:39.727Z,10.00
2018-11-03T13:59:42.674Z,9.00
2018-11-03T14:00:47.381Z,8.50
2018-11-03T14:01:50.261Z,9.00
2018-11-03T14:02:55.187Z,8.00
2018-11-03T14:03:58.342Z,10.25
2018-11-03T14:05:22.845Z,8.50
2018-11-03T14:07:40.701Z,9.50
2018-11-03T14:08:43.716Z,11.00
2018-11-03T14:09:46.525Z,8.00
2018-11-03T14:12:07.493Z,11.00
2018-11-03T14:13:11.074Z,8.00
2018-11-03T14:15:31.750Z,10.00
2018-11-03T14:16:35.161Z,8.00
2018-11-03T14:17:38.010Z,5.50
2018-11-03T14:18:41.595Z,12.00
2018-11-03T14:19:44.720Z,7.50
2018-11-03T14:20:48.528Z,8.75
2018-11-03T14:21:51.396Z,9.00
2018-11-03T14:22:54.239Z,11.00
2018-11-03T14:23:58.307Z,13.00
2018-11-03T14:25:02.622Z,11.00
2018-11-03T14:26:06.426Z,8.75
2018-11-03T14:27:13.759Z,13.75
2018-11-03T14:28:17.254Z,14.25
2018-11-03T14:29:20.295Z,14.50
2018-11-03T14:30:22.974Z,11.00
2018-11-03T14:31:27.439Z,12.00
2018-11-03T14:32:30.660Z,14.50
2018-11-03T14:33:33.496Z,15.00
2018-11-03T14:34:36.964Z,15.25